Time;durP1;ratioP1;P1;durP2;ratioP2;P2;SDS_P1;SDS_P2;PMS_P1;PMS_P2;Temp;Humidity;BMP_temperature;BMP_pressure;BME280_temperature;BME280_humidity;BME280_pressure;Samples;Min_cycle;Max_cycle;Signal;HPM_P1;HPM_P2
2023/07/28 00:01:36;;;;;;;18.98;17.52;;;14.20;89.70;;;;;;5113576;27;20032;-72
2023/07/28 00:04:04;;;;;;;19.58;18.05;;;14.10;89.80;;;;;;5091604;28;20042;-72
2023/07/28 00:06:29;;;;;;;19.60;18.15;;;14.20;89.50;;;;;;5108384;28;20512;-72
2023/07/28 00:08:55;;;;;;;19.13;17.67;;;14.10;89.60;;;;;;5109952;28;20115;-72
2023/07/28 00:11:21;;;;;;;18.58;17.40;;;14.10;89.30;;;;;;5108838;28;20131;-71
2023/07/28 00:13:46;;;;;;;18.77;17.35;;;14.00;89.50;;;;;;5109100;28;20035;-72
2023/07/28 00:16:12;;;;;;;18.92;17.50;;;14.00;89.80;;;;;;5106398;28;20546;-71
2023/07/28 00:18:38;;;;;;;19.17;17.90;;;14.00;90.20;;;;;;5092349;28;20535;-72
2023/07/28 00:21:05;;;;;;;20.23;18.92;;;14.10;89.80;;;;;;5109737;28;20050;-73
2023/07/28 00:23:30;;;;;;;19.50;17.88;;;14.20;88.90;;;;;;5110916;28;20085;-71
2023/07/28 00:25:56;;;;;;;17.90;16.70;;;14.10;88.80;;;;;;5108330;28;20036;-72
2023/07/28 00:28:21;;;;;;;17.95;16.65;;;14.00;88.90;;;;;;5109048;28;20385;-72
2023/07/28 00:30:51;;;;;;;17.73;16.55;;;13.90;89.40;;;;;;5091941;28;20859;-72
2023/07/28 00:33:17;;;;;;;18.77;17.63;;;13.90;89.70;;;;;;5108239;28;20130;-72
2023/07/28 00:35:43;;;;;;;19.08;17.83;;;14.00;89.20;;;;;;5091983;28;20034;-72
2023/07/28 00:38:09;;;;;;;19.55;18.13;;;14.10;89.00;;;;;;5110222;28;20035;-72
2023/07/28 00:40:35;;;;;;;19.08;17.77;;;14.10;88.70;;;;;;5109663;28;20028;-72
2023/07/28 00:43:01;;;;;;;19.38;18.27;;;14.20;88.40;;;;;;5110098;28;20189;-72
2023/07/28 00:45:27;;;;;;;18.77;17.63;;;14.20;88.30;;;;;;5107911;28;20118;-72
2023/07/28 00:47:54;;;;;;;19.25;17.98;;;14.20;87.80;;;;;;5108451;28;20038;-72
2023/07/28 00:50:20;;;;;;;19.90;18.55;;;14.20;87.40;;;;;;5107339;28;20039;-72
2023/07/28 00:52:46;;;;;;;17.73;16.73;;;14.20;87.80;;;;;;5110436;27;20035;-72
2023/07/28 00:55:12;;;;;;;18.88;17.50;;;14.20;87.50;;;;;;5108110;28;20040;-72
2023/07/28 00:57:39;;;;;;;19.15;17.85;;;14.10;88.20;;;;;;5107610;28;20493;-72
2023/07/28 01:00:05;;;;;;;18.63;17.42;;;14.10;88.60;;;;;;5109986;27;20063;-72
2023/07/28 01:02:31;;;;;;;19.17;17.67;;;14.10;88.20;;;;;;5106219;28;20116;-72
2023/07/28 01:04:58;;;;;;;19.58;18.08;;;14.00;88.80;;;;;;5107288;28;20500;-72
2023/07/28 01:07:30;;;;;;;18.20;17.08;;;13.90;89.10;;;;;;5106959;28;20028;-71
2023/07/28 01:10:17;;;;;;;19.13;17.73;;;14.00;89.00;;;;;;5101797;28;20521;-72
2023/07/28 01:12:42;;;;;;;19.13;17.85;;;14.00;88.70;;;;;;5107446;28;20485;-72
2023/07/28 01:15:08;;;;;;;18.77;17.58;;;14.00;89.00;;;;;;5107141;28;20028;-72
2023/07/28 01:17:34;;;;;;;18.38;17.27;;;13.90;89.50;;;;;;5089096;28;20024;-72
2023/07/28 01:20:00;;;;;;;17.88;16.65;;;13.90;90.20;;;;;;5107974;28;20039;-72
2023/07/28 01:22:47;;;;;;;18.02;16.83;;;13.70;90.20;;;;;;5107082;28;20105;-72
2023/07/28 01:25:22;;;;;;;19.92;18.70;;;13.70;90.40;;;;;;5105452;28;20452;-72
2023/07/28 01:27:49;;;;;;;18.48;17.38;;;13.90;90.20;;;;;;5107649;28;20432;-72
2023/07/28 01:30:16;;;;;;;18.55;17.17;;;13.90;90.20;;;;;;5107802;27;20046;-72
2023/07/28 01:32:42;;;;;;;17.48;16.33;;;14.00;90.00;;;;;;5086812;28;20040;-72
2023/07/28 01:35:08;;;;;;;19.42;17.83;;;14.00;89.80;;;;;;5087383;28;20046;-72
2023/07/28 01:37:34;;;;;;;18.58;17.27;;;13.90;90.10;;;;;;5108732;28;20424;-72
2023/07/28 01:39:59;;;;;;;18.10;17.00;;;13.80;90.20;;;;;;5104870;28;20036;-72
2023/07/28 01:42:25;;;;;;;17.73;16.52;;;13.90;90.40;;;;;;5107216;28;20055;-72
2023/07/28 01:44:51;;;;;;;18.52;17.33;;;13.90;90.20;;;;;;5108572;27;20481;-71
2023/07/28 01:47:16;;;;;;;18.80;17.38;;;14.00;90.10;;;;;;5104730;28;20063;-72
2023/07/28 01:49:42;;;;;;;18.42;17.23;;;14.00;90.00;;;;;;5107501;28;20074;-72
2023/07/28 01:52:08;;;;;;;19.63;18.25;;;13.80;90.20;;;;;;5103746;28;20040;-72
2023/07/28 01:54:33;;;;;;;18.27;17.00;;;13.90;90.30;;;;;;5104437;28;20066;-72
2023/07/28 01:56:59;;;;;;;17.60;16.33;;;13.80;90.30;;;;;;5104238;28;20047;-71
2023/07/28 01:59:24;;;;;;;19.05;17.30;;;13.70;90.40;;;;;;5106693;28;20039;-72
2023/07/28 02:01:50;;;;;;;17.88;16.38;;;13.80;90.40;;;;;;5107473;28;20040;-71
2023/07/28 02:04:16;;;;;;;18.63;17.17;;;13.80;90.40;;;;;;5106777;28;20032;-72
2023/07/28 02:06:42;;;;;;;18.55;17.15;;;13.80;90.40;;;;;;5102423;28;20106;-72
2023/07/28 02:09:08;;;;;;;17.60;16.40;;;13.80;90.40;;;;;;5090745;28;20034;-72
2023/07/28 02:11:33;;;;;;;19.05;17.60;;;13.70;90.40;;;;;;5103237;28;20133;-72
2023/07/28 02:13:59;;;;;;;17.95;16.95;;;13.70;90.40;;;;;;5106415;28;20141;-72
2023/07/28 02:16:27;;;;;;;17.35;16.35;;;13.70;90.60;;;;;;5103500;28;20533;-72
2023/07/28 02:18:53;;;;;;;19.30;17.55;;;13.50;90.60;;;;;;5104515;28;20478;-72
2023/07/28 02:21:19;;;;;;;18.20;17.00;;;13.50;90.80;;;;;;5104510;28;20055;-72
2023/07/28 02:23:45;;;;;;;17.50;16.40;;;13.60;90.90;;;;;;5086751;28;20069;-72
2023/07/28 02:26:11;;;;;;;18.05;16.85;;;13.60;90.90;;;;;;5105572;28;20605;-72
2023/07/28 02:28:36;;;;;;;18.25;17.05;;;13.60;91.00;;;;;;5105847;28;20032;-72
2023/07/28 02:31:02;;;;;;;18.77;17.25;;;13.70;90.90;;;;;;5097103;28;20036;-72
2023/07/28 02:33:29;;;;;;;18.30;17.00;;;13.70;90.80;;;;;;5104407;28;20036;-71
2023/07/28 02:35:56;;;;;;;17.60;16.40;;;13.80;90.80;;;;;;5101699;28;20032;-72
2023/07/28 02:38:22;;;;;;;18.73;17.33;;;13.90;90.60;;;;;;5109008;28;20040;-72
2023/07/28 02:40:47;;;;;;;17.17;16.02;;;13.90;90.60;;;;;;5111738;27;20055;-72
2023/07/28 02:43:13;;;;;;;18.08;16.98;;;13.90;90.60;;;;;;5115116;27;20038;-71
2023/07/28 02:45:38;;;;;;;18.52;16.85;;;13.90;90.50;;;;;;5107404;28;20505;-71
2023/07/28 02:48:04;;;;;;;18.10;16.83;;;13.80;90.40;;;;;;5109514;28;20517;-72
2023/07/28 02:50:30;;;;;;;17.58;16.48;;;13.80;90.60;;;;;;5107458;28;20106;-71
2023/07/28 02:52:56;;;;;;;16.88;15.80;;;13.80;90.70;;;;;;5111714;28;20588;-73
2023/07/28 02:55:21;;;;;;;17.77;16.63;;;13.70;90.80;;;;;;5109653;28;20506;-72
2023/07/28 02:57:47;;;;;;;18.77;17.35;;;13.60;90.90;;;;;;5110016;28;20489;-72
2023/07/28 03:00:14;;;;;;;16.80;15.68;;;13.50;91.20;;;;;;5109856;28;20068;-72
2023/07/28 03:02:39;;;;;;;20.60;16.33;;;13.60;91.50;;;;;;5112320;28;20152;-72
2023/07/28 03:05:05;;;;;;;18.42;17.02;;;13.70;91.70;;;;;;5110814;28;20454;-72
2023/07/28 03:07:31;;;;;;;18.13;16.90;;;13.70;91.50;;;;;;5107632;28;20019;-72
2023/07/28 03:09:57;;;;;;;18.35;16.88;;;13.80;91.50;;;;;;5107824;28;20024;-72
2023/07/28 03:12:22;;;;;;;18.05;16.85;;;13.80;91.60;;;;;;5112057;27;20465;-72
2023/07/28 03:14:48;;;;;;;17.25;16.23;;;13.80;91.50;;;;;;5105202;28;20036;-72
2023/07/28 03:17:14;;;;;;;19.20;17.88;;;13.80;91.40;;;;;;5108867;28;20144;-72
2023/07/28 03:19:39;;;;;;;18.92;17.35;;;13.80;91.50;;;;;;5111695;28;20853;-72
2023/07/28 03:22:05;;;;;;;19.80;18.40;;;13.70;91.70;;;;;;5110171;28;20032;-72
2023/07/28 03:24:30;;;;;;;19.23;17.95;;;13.70;91.80;;;;;;5108754;28;20072;-72
2023/07/28 03:26:56;;;;;;;19.65;18.40;;;13.70;92.10;;;;;;5110809;27;20409;-72
2023/07/28 03:29:22;;;;;;;20.67;19.17;;;13.60;92.10;;;;;;5109248;27;20043;-71
2023/07/28 03:31:48;;;;;;;23.70;22.38;;;13.50;92.60;;;;;;5106781;27;20023;-72
2023/07/28 03:34:13;;;;;;;27.02;25.60;;;13.50;92.50;;;;;;5110580;28;20024;-72
2023/07/28 03:36:39;;;;;;;30.70;29.08;;;13.40;92.80;;;;;;5110495;28;20044;-72
2023/07/28 03:39:05;;;;;;;31.73;29.88;;;13.40;93.50;;;;;;5108751;28;20031;-72
2023/07/28 03:41:30;;;;;;;31.50;29.70;;;13.40;93.80;;;;;;5111598;28;20055;-72
2023/07/28 03:43:56;;;;;;;33.53;31.45;;;13.60;94.00;;;;;;5110918;28;20125;-72
2023/07/28 03:46:22;;;;;;;30.55;28.85;;;13.70;93.90;;;;;;5111118;28;20035;-72
2023/07/28 03:48:47;;;;;;;32.00;30.38;;;13.70;93.90;;;;;;5107976;28;20024;-71
2023/07/28 03:51:13;;;;;;;29.98;28.15;;;13.80;94.10;;;;;;5111716;28;20105;-71
2023/07/28 03:53:39;;;;;;;29.75;28.00;;;13.90;93.50;;;;;;5105040;28;20493;-72
2023/07/28 03:56:04;;;;;;;28.75;27.23;;;14.00;93.40;;;;;;5111649;28;20047;-72
2023/07/28 03:58:30;;;;;;;26.33;24.77;;;14.10;93.30;;;;;;5109520;28;20482;-71
2023/07/28 04:00:56;;;;;;;26.85;25.17;;;14.20;93.10;;;;;;5110857;28;20100;-72
2023/07/28 04:03:21;;;;;;;26.20;24.83;;;14.30;92.90;;;;;;5108782;27;20109;-72
2023/07/28 04:05:47;;;;;;;22.27;20.73;;;14.40;92.70;;;;;;5109210;28;20036;-72
2023/07/28 04:08:13;;;;;;;20.80;19.55;;;14.50;92.50;;;;;;5109365;28;20032;-72
2023/07/28 04:10:38;;;;;;;18.70;17.50;;;14.50;92.40;;;;;;5108925;27;20033;-72
2023/07/28 04:13:04;;;;;;;19.15;17.75;;;14.60;92.10;;;;;;5103660;28;20038;-73
2023/07/28 04:15:30;;;;;;;19.50;18.08;;;14.70;92.00;;;;;;5107922;28;20042;-72
2023/07/28 04:17:55;;;;;;;18.23;17.02;;;14.70;91.80;;;;;;5108172;28;20035;-72
2023/07/28 04:20:21;;;;;;;19.75;18.38;;;14.70;91.70;;;;;;5109884;28;20031;-72
2023/07/28 04:22:47;;;;;;;18.80;17.55;;;14.70;91.70;;;;;;5110580;28;20023;-72
2023/07/28 04:25:12;;;;;;;18.02;16.50;;;14.70;91.70;;;;;;5108059;28;20038;-71
2023/07/28 04:27:38;;;;;;;19.20;17.33;;;14.70;91.60;;;;;;5107696;28;20036;-72
2023/07/28 04:30:04;;;;;;;19.63;18.02;;;14.60;91.70;;;;;;5091674;28;20058;-72
2023/07/28 04:32:30;;;;;;;22.30;20.30;;;14.60;91.90;;;;;;5110176;28;20024;-71
2023/07/28 04:34:56;;;;;;;29.13;26.65;;;14.60;91.80;;;;;;5115504;28;20090;-71
2023/07/28 04:37:22;;;;;;;22.08;20.58;;;14.70;92.00;;;;;;5118532;28;20039;-71
2023/07/28 04:39:48;;;;;;;24.05;22.35;;;14.70;91.80;;;;;;5117456;28;20501;-71
2023/07/28 04:42:13;;;;;;;18.92;17.42;;;14.70;92.00;;;;;;5120390;28;20552;-71
2023/07/28 04:44:40;;;;;;;19.30;17.95;;;14.70;91.90;;;;;;5115967;28;20035;-71
2023/07/28 04:47:06;;;;;;;18.90;17.50;;;14.60;92.00;;;;;;5119828;28;20085;-71
2023/07/28 04:49:31;;;;;;;21.83;20.02;;;14.60;92.10;;;;;;5122801;28;20538;-71
2023/07/28 04:51:57;;;;;;;21.67;20.27;;;14.50;92.30;;;;;;5122078;28;20042;-71
2023/07/28 04:54:23;;;;;;;22.40;20.70;;;14.40;92.50;;;;;;5115435;27;20439;-72
2023/07/28 04:56:49;;;;;;;25.55;24.08;;;14.40;92.60;;;;;;5107070;28;20051;-72
2023/07/28 04:59:15;;;;;;;24.00;22.63;;;14.40;92.80;;;;;;5107332;28;20035;-72
2023/07/28 05:01:41;;;;;;;23.42;21.95;;;14.40;92.80;;;;;;5108250;28;20154;-72
2023/07/28 05:04:07;;;;;;;21.33;19.92;;;14.40;92.80;;;;;;5106795;28;20114;-71
2023/07/28 05:06:32;;;;;;;23.75;22.40;;;14.50;92.40;;;;;;5108582;28;20111;-72
2023/07/28 05:08:58;;;;;;;22.40;20.90;;;14.60;92.30;;;;;;5108818;27;20073;-72
2023/07/28 05:11:23;;;;;;;19.25;17.75;;;14.70;92.20;;;;;;5103390;28;20024;-71
2023/07/28 05:13:49;;;;;;;19.40;18.10;;;14.70;92.00;;;;;;5085132;28;20130;-71
2023/07/28 05:16:15;;;;;;;19.63;18.27;;;14.80;91.80;;;;;;5105519;27;20027;-72
2023/07/28 05:18:42;;;;;;;19.65;18.25;;;14.90;91.50;;;;;;5107096;27;20036;-72
2023/07/28 05:21:08;;;;;;;19.40;18.02;;;15.00;91.10;;;;;;5089375;28;20413;-72
2023/07/28 05:23:34;;;;;;;19.90;18.60;;;15.10;90.90;;;;;;5108550;28;20032;-71
2023/07/28 05:25:59;;;;;;;20.30;19.00;;;15.20;90.80;;;;;;5102581;28;20109;-74
2023/07/28 05:28:25;;;;;;;19.85;18.55;;;15.30;90.60;;;;;;5100825;28;20039;-75
2023/07/28 05:30:51;;;;;;;19.13;17.80;;;15.30;90.80;;;;;;5105604;28;20031;-74
2023/07/28 05:33:16;;;;;;;18.20;16.90;;;15.50;90.50;;;;;;5103667;28;20040;-74
2023/07/28 05:35:42;;;;;;;18.85;17.27;;;15.50;90.60;;;;;;5108596;28;20431;-74
2023/07/28 05:38:08;;;;;;;19.83;18.38;;;15.60;90.30;;;;;;5086835;28;20031;-74
2023/07/28 05:40:33;;;;;;;17.98;16.90;;;15.60;90.30;;;;;;5088851;28;20065;-73
2023/07/28 05:42:59;;;;;;;18.92;17.55;;;15.80;90.30;;;;;;5105426;27;20027;-76
2023/07/28 05:45:25;;;;;;;18.77;17.48;;;16.00;90.10;;;;;;5106353;28;20035;-77
2023/07/28 05:47:50;;;;;;;18.27;17.17;;;16.20;89.90;;;;;;5102853;28;20111;-76
2023/07/28 05:50:16;;;;;;;18.45;17.45;;;16.30;88.40;;;;;;5089417;28;20121;-76
2023/07/28 05:52:42;;;;;;;18.90;17.63;;;16.40;88.20;;;;;;5108574;28;20556;-76
2023/07/28 05:55:08;;;;;;;18.85;17.55;;;16.50;88.10;;;;;;5071978;28;20084;-76
2023/07/28 05:57:34;;;;;;;18.98;17.67;;;16.70;87.10;;;;;;5091586;28;20046;-76
2023/07/28 06:00:00;;;;;;;19.35;17.98;;;17.00;86.50;;;;;;5092426;28;20027;-76
2023/07/28 06:02:25;;;;;;;18.33;17.20;;;17.30;84.60;;;;;;5086449;28;20054;-76
2023/07/28 06:04:52;;;;;;;18.45;17.25;;;17.60;82.20;;;;;;5087118;28;20543;-77
2023/07/28 06:07:18;;;;;;;19.42;17.83;;;17.90;80.50;;;;;;5087015;28;20118;-77
2023/07/28 06:09:43;;;;;;;17.38;16.33;;;18.10;82.30;;;;;;5103247;27;20095;-76
2023/07/28 06:12:09;;;;;;;19.05;17.63;;;18.20;78.80;;;;;;5103897;28;20107;-75
2023/07/28 06:14:35;;;;;;;17.30;16.10;;;18.30;79.40;;;;;;5105044;27;20044;-74
2023/07/28 06:17:00;;;;;;;17.15;16.02;;;18.50;79.30;;;;;;5088661;28;20043;-73
2023/07/28 06:19:26;;;;;;;18.00;16.45;;;18.30;76.90;;;;;;5107240;28;20036;-74
2023/07/28 06:21:52;;;;;;;20.70;19.30;;;18.20;78.40;;;;;;5085671;28;20032;-75
2023/07/28 06:24:18;;;;;;;17.52;16.33;;;18.20;76.90;;;;;;5106771;28;20049;-75
2023/07/28 06:26:44;;;;;;;16.80;15.65;;;18.20;76.60;;;;;;5105387;28;20028;-76
2023/07/28 06:29:09;;;;;;;17.08;15.80;;;18.20;78.10;;;;;;5105761;27;20032;-76
2023/07/28 06:31:35;;;;;;;16.02;14.82;;;18.20;78.20;;;;;;5086388;28;20496;-74
2023/07/28 06:34:01;;;;;;;17.38;16.17;;;18.20;78.30;;;;;;5102830;28;20549;-75
2023/07/28 06:36:27;;;;;;;16.73;15.10;;;18.20;77.30;;;;;;5090766;28;20043;-74
2023/07/28 06:38:55;;;;;;;16.23;15.00;;;18.20;77.30;;;;;;5107994;28;20111;-74
2023/07/28 06:41:21;;;;;;;17.27;15.98;;;18.20;78.40;;;;;;5103907;28;20053;-75
2023/07/28 06:43:48;;;;;;;16.70;15.10;;;18.30;77.20;;;;;;5104874;28;20070;-76
2023/07/28 06:46:14;;;;;;;17.00;15.70;;;18.40;77.40;;;;;;5089014;28;20071;-75
2023/07/28 06:48:40;;;;;;;17.67;15.98;;;18.50;78.40;;;;;;5106781;28;20090;-74
2023/07/28 06:51:07;;;;;;;18.15;16.85;;;18.80;77.70;;;;;;5084473;28;20028;-76
2023/07/28 06:53:34;;;;;;;16.83;15.43;;;18.90;75.80;;;;;;5088910;28;20081;-78
2023/07/28 06:56:01;;;;;;;15.93;14.73;;;19.10;76.50;;;;;;5104790;28;20713;-77
2023/07/28 06:58:26;;;;;;;16.70;15.50;;;19.30;76.20;;;;;;5084950;28;20044;-79
2023/07/28 07:00:55;;;;;;;16.92;15.63;;;19.40;75.50;;;;;;5071300;28;20020;-79
2023/07/28 07:03:21;;;;;;;17.95;16.63;;;19.50;74.60;;;;;;5105867;28;20040;-77
2023/07/28 07:05:47;;;;;;;17.10;16.00;;;19.60;73.40;;;;;;5087279;28;20028;-79
2023/07/28 07:08:13;;;;;;;16.35;15.35;;;20.00;74.60;;;;;;5104504;28;20027;-79
2023/07/28 07:10:38;;;;;;;16.33;15.25;;;20.00;72.70;;;;;;5105040;28;20032;-82
2023/07/28 07:13:04;;;;;;;15.90;14.70;;;20.40;73.90;;;;;;5088384;28;20134;-80
2023/07/28 07:15:29;;;;;;;15.95;14.90;;;20.20;71.30;;;;;;5091339;28;20063;-80
2023/07/28 07:17:55;;;;;;;15.68;14.68;;;19.90;73.70;;;;;;5098033;28;20031;-80
2023/07/28 07:20:21;;;;;;;14.90;13.90;;;20.00;72.80;;;;;;5107153;28;20044;-82
2023/07/28 07:22:47;;;;;;;15.18;14.18;;;19.90;73.30;;;;;;5106348;28;20039;-79
2023/07/28 07:25:13;;;;;;;14.77;13.88;;;19.90;73.10;;;;;;5110577;28;20020;-78
2023/07/28 07:27:39;;;;;;;15.70;14.70;;;19.70;74.60;;;;;;5074406;28;20038;-78
2023/07/28 07:30:05;;;;;;;15.73;14.60;;;19.70;73.10;;;;;;5107658;28;20073;-79
2023/07/28 07:32:33;;;;;;;15.23;14.25;;;19.70;77.20;;;;;;5073034;28;20447;-79
2023/07/28 07:34:59;;;;;;;16.20;14.77;;;19.40;77.30;;;;;;5092982;28;20032;-78
2023/07/28 07:37:25;;;;;;;18.95;17.75;;;19.20;80.50;;;;;;5111060;28;20094;-77
2023/07/28 07:39:50;;;;;;;18.85;17.85;;;19.20;82.60;;;;;;5109878;28;20194;-80
2023/07/28 07:42:16;;;;;;;24.38;23.17;;;19.00;82.40;;;;;;5075059;28;20109;-78
2023/07/28 07:44:42;;;;;;;20.92;19.65;;;19.00;85.00;;;;;;5107261;28;20139;-78
2023/07/28 07:47:15;;;;;;;17.73;16.58;;;19.00;85.80;;;;;;5072358;27;20457;-77
2023/07/28 07:49:41;;;;;;;18.40;17.30;;;19.20;83.60;;;;;;5108942;27;20020;-77
2023/07/28 07:52:09;;;;;;;19.60;18.38;;;19.40;86.10;;;;;;5109752;28;20106;-78
2023/07/28 07:54:34;;;;;;;17.60;16.55;;;19.60;81.50;;;;;;5088421;28;20023;-77
2023/07/28 07:57:00;;;;;;;17.73;16.35;;;19.90;85.30;;;;;;5103581;28;20057;-77
2023/07/28 07:59:28;;;;;;;18.70;17.48;;;20.10;84.10;;;;;;5091071;28;20028;-77
2023/07/28 08:01:54;;;;;;;17.42;15.90;;;20.50;84.50;;;;;;5110382;28;20055;-77
2023/07/28 08:04:20;;;;;;;16.48;15.48;;;20.60;81.70;;;;;;5080000;28;20550;-76
2023/07/28 08:06:46;;;;;;;15.73;14.82;;;20.70;76.40;;;;;;5106223;28;20134;-77
2023/07/28 08:09:11;;;;;;;16.63;15.57;;;21.10;75.50;;;;;;5106477;28;20115;-77
2023/07/28 08:11:37;;;;;;;15.15;14.32;;;21.30;74.30;;;;;;5106084;28;20024;-78
2023/07/28 08:14:03;;;;;;;15.43;14.60;;;21.30;71.10;;;;;;5088448;28;20569;-77
2023/07/28 08:16:28;;;;;;;15.52;14.45;;;21.30;71.20;;;;;;5085789;28;20032;-77
2023/07/28 08:18:54;;;;;;;14.55;13.63;;;21.50;71.00;;;;;;5110020;27;20028;-78
2023/07/28 08:21:20;;;;;;;14.63;13.75;;;21.40;69.00;;;;;;5111008;27;20028;-77
2023/07/28 08:23:45;;;;;;;14.48;13.55;;;21.20;70.50;;;;;;5087661;28;20032;-79
2023/07/28 08:26:11;;;;;;;14.82;13.93;;;21.00;70.10;;;;;;5107788;28;20568;-77
2023/07/28 08:28:36;;;;;;;15.82;14.82;;;20.70;71.90;;;;;;5069239;28;20043;-78
2023/07/28 08:31:03;;;;;;;14.05;13.25;;;20.50;74.60;;;;;;5085220;28;20032;-77
2023/07/28 08:33:29;;;;;;;15.15;14.35;;;20.30;73.30;;;;;;5107675;27;20039;-77
2023/07/28 08:35:55;;;;;;;14.57;13.65;;;20.40;72.30;;;;;;5108131;27;20061;-78
2023/07/28 08:38:20;;;;;;;14.60;13.75;;;20.50;71.00;;;;;;5106112;28;20109;-78
2023/07/28 08:40:46;;;;;;;14.65;13.73;;;20.60;70.10;;;;;;5106737;28;20042;-79
2023/07/28 08:43:12;;;;;;;15.68;14.77;;;20.60;69.40;;;;;;5106883;28;20476;-77
2023/07/28 08:45:38;;;;;;;14.70;13.55;;;20.60;69.10;;;;;;5103550;28;20028;-77
2023/07/28 08:48:04;;;;;;;13.70;12.90;;;20.70;69.60;;;;;;5087464;28;20023;-77
2023/07/28 08:50:30;;;;;;;13.98;12.98;;;20.80;69.70;;;;;;5108985;28;20081;-78
2023/07/28 08:52:59;;;;;;;13.77;13.02;;;21.00;68.90;;;;;;5106201;28;20035;-77
2023/07/28 08:55:25;;;;;;;14.27;13.48;;;21.10;68.90;;;;;;5087326;28;20386;-77
2023/07/28 08:57:51;;;;;;;13.80;13.00;;;21.20;68.90;;;;;;5073186;28;20050;-77
2023/07/28 09:00:17;;;;;;;14.90;14.07;;;21.30;67.40;;;;;;5084108;28;20046;-78
2023/07/28 09:02:43;;;;;;;14.52;13.52;;;21.50;66.40;;;;;;5089321;28;20114;-77
2023/07/28 09:05:21;;;;;;;14.48;13.57;;;21.40;67.40;;;;;;5103118;27;20115;-74
2023/07/28 09:07:49;;;;;;;14.40;13.50;;;21.40;67.40;;;;;;5088702;28;20524;-74
2023/07/28 09:10:15;;;;;;;14.80;13.93;;;21.50;68.20;;;;;;5082830;28;20036;-75
2023/07/28 09:12:49;;;;;;;15.25;14.40;;;21.70;66.70;;;;;;5092010;28;20046;-76
2023/07/28 09:15:16;;;;;;;16.00;15.10;;;21.70;67.20;;;;;;5106597;28;20089;-75
2023/07/28 09:17:45;;;;;;;15.32;14.38;;;21.80;65.20;;;;;;5108800;28;20085;-74
2023/07/28 09:20:15;;;;;;;15.70;14.70;;;22.20;64.80;;;;;;5104190;27;20043;-74
2023/07/28 09:22:44;;;;;;;24.35;22.95;;;22.20;63.90;;;;;;5087170;28;20510;-74
2023/07/28 09:25:14;;;;;;;17.83;16.75;;;22.20;63.90;;;;;;5107030;28;20036;-74
2023/07/28 09:27:40;;;;;;;20.17;19.02;;;22.10;63.10;;;;;;5104450;28;20039;-74
2023/07/28 09:30:07;;;;;;;18.27;17.17;;;21.80;64.40;;;;;;5105428;28;20027;-74
2023/07/28 09:32:35;;;;;;;18.40;17.40;;;22.10;65.60;;;;;;5088525;28;20142;-74
2023/07/28 09:35:12;;;;;;;17.65;16.58;;;23.00;61.60;;;;;;5071433;28;20371;-74
2023/07/28 09:37:54;;;;;;;16.58;15.77;;;23.20;62.00;;;;;;5091822;28;20093;-73
2023/07/28 09:40:21;;;;;;;49.70;44.35;;;23.10;59.90;;;;;;5088180;28;20055;-75
2023/07/28 09:42:49;;;;;;;17.80;16.83;;;22.90;59.50;;;;;;5103191;28;20040;-74
2023/07/28 09:45:18;;;;;;;38.45;34.63;;;23.80;61.50;;;;;;5103681;28;20020;-74
2023/07/28 09:47:50;;;;;;;18.63;17.73;;;24.00;57.40;;;;;;5101214;28;20016;-74
2023/07/28 09:50:18;;;;;;;24.58;23.17;;;24.90;59.30;;;;;;5107893;28;20023;-74
2023/07/28 09:52:47;;;;;;;18.88;17.98;;;24.90;55.80;;;;;;5105932;28;20549;-75
2023/07/28 09:55:15;;;;;;;19.52;18.52;;;24.70;55.60;;;;;;5072088;28;20501;-77
2023/07/28 09:57:51;;;;;;;19.17;18.08;;;25.20;55.20;;;;;;5087321;28;20032;-74
2023/07/28 10:00:18;;;;;;;19.85;18.65;;;24.70;54.50;;;;;;5107402;28;20046;-74
2023/07/28 10:02:44;;;;;;;20.70;19.70;;;24.30;55.70;;;;;;5108354;27;20126;-73
2023/07/28 10:05:11;;;;;;;18.08;17.17;;;24.50;55.20;;;;;;5106490;28;20080;-70
2023/07/28 10:07:40;;;;;;;17.42;16.27;;;24.60;56.80;;;;;;5106851;28;20102;-75
2023/07/28 10:10:09;;;;;;;20.00;18.13;;;24.50;54.60;;;;;;5105938;28;20023;-76
2023/07/28 10:12:42;;;;;;;17.53;16.53;;;24.20;55.90;;;;;;5105181;28;20036;-74
2023/07/28 10:15:15;;;;;;;16.90;16.02;;;24.00;55.70;;;;;;5105437;28;20046;-74
2023/07/28 10:17:44;;;;;;;19.52;18.42;;;24.20;56.70;;;;;;5089826;28;20701;-74
2023/07/28 10:20:28;;;;;;;19.08;18.13;;;24.30;58.40;;;;;;5084506;28;20108;-75
2023/07/28 10:23:01;;;;;;;17.52;16.52;;;24.60;54.40;;;;;;5087272;28;20508;-75
2023/07/28 10:25:26;;;;;;;19.45;18.08;;;24.70;54.40;;;;;;5088919;28;20039;-76
2023/07/28 10:27:54;;;;;;;26.17;24.58;;;24.90;54.70;;;;;;5106107;28;20050;-74
2023/07/28 10:30:20;;;;;;;19.10;17.90;;;24.90;53.00;;;;;;5086463;28;20107;-78
2023/07/28 10:32:50;;;;;;;24.90;23.20;;;25.90;53.70;;;;;;5103203;28;20158;-73
2023/07/28 10:35:21;;;;;;;18.83;17.88;;;26.20;49.50;;;;;;5072571;28;20036;-74
2023/07/28 10:37:48;;;;;;;20.00;18.55;;;25.60;51.40;;;;;;5106750;28;20029;-74
2023/07/28 10:40:30;;;;;;;71.72;65.00;;;25.90;49.00;;;;;;5106191;28;20024;-74
2023/07/28 10:42:56;;;;;;;19.40;18.40;;;26.00;52.20;;;;;;5108252;28;20501;-77
2023/07/28 10:45:24;;;;;;;19.73;18.67;;;26.30;50.50;;;;;;5105837;28;20020;-79
2023/07/28 10:47:52;;;;;;;20.52;19.55;;;26.40;49.00;;;;;;5077381;28;20031;-75
2023/07/28 10:50:18;;;;;;;36.67;34.90;;;26.90;47.50;;;;;;5107591;28;20062;-76
2023/07/28 10:52:46;;;;;;;24.05;22.65;;;26.50;46.50;;;;;;5087221;28;20031;-76
2023/07/28 10:55:15;;;;;;;20.63;19.52;;;26.70;52.70;;;;;;5103724;28;20054;-76
2023/07/28 10:57:43;;;;;;;20.10;19.10;;;26.40;49.60;;;;;;5086943;28;20043;-73
2023/07/28 11:00:11;;;;;;;19.42;18.10;;;26.30;49.40;;;;;;5108241;28;20042;-73
2023/07/28 11:02:38;;;;;;;21.08;20.08;;;25.80;49.40;;;;;;5092772;28;20117;-73
2023/07/28 11:05:14;;;;;;;28.80;27.05;;;25.60;50.70;;;;;;5089456;28;20445;-74
2023/07/28 11:07:43;;;;;;;36.22;34.47;;;25.60;52.60;;;;;;5108339;27;20059;-74
2023/07/28 11:10:13;;;;;;;22.23;21.07;;;25.30;51.70;;;;;;5090720;28;20070;-74
2023/07/28 11:12:48;;;;;;;21.80;20.60;;;25.50;54.10;;;;;;5109932;28;20028;-75
2023/07/28 11:15:16;;;;;;;26.80;25.50;;;25.40;52.10;;;;;;5093743;28;20036;-75
2023/07/28 11:17:50;;;;;;;20.88;19.77;;;25.10;51.80;;;;;;5112915;27;20063;-75
2023/07/28 11:20:24;;;;;;;17.33;16.08;;;25.10;52.10;;;;;;5093873;28;20046;-75
2023/07/28 11:23:03;;;;;;;23.77;22.40;;;25.50;52.30;;;;;;5107875;28;20063;-74
2023/07/28 11:25:30;;;;;;;25.03;22.90;;;24.80;53.40;;;;;;5108333;28;20038;-74
2023/07/28 11:27:56;;;;;;;23.83;22.65;;;24.50;55.10;;;;;;5110509;28;20439;-74
2023/07/28 11:30:23;;;;;;;17.17;16.08;;;24.80;54.50;;;;;;5107690;28;20085;-74
2023/07/28 11:32:53;;;;;;;17.30;16.05;;;24.60;56.20;;;;;;5107289;27;20032;-80
2023/07/28 11:35:21;;;;;;;19.42;17.98;;;24.70;55.20;;;;;;5109720;28;20070;-73
2023/07/28 11:37:50;;;;;;;18.33;17.40;;;24.60;56.50;;;;;;5108700;28;20027;-73
2023/07/28 11:40:19;;;;;;;19.38;17.48;;;24.60;54.00;;;;;;5106364;28;20019;-73
2023/07/28 11:42:47;;;;;;;19.27;17.98;;;24.40;56.10;;;;;;5105276;28;20550;-74
2023/07/28 11:45:15;;;;;;;17.40;16.13;;;24.80;57.30;;;;;;5110595;27;20065;-74
2023/07/28 11:47:55;;;;;;;18.40;17.13;;;24.50;55.20;;;;;;5096700;28;20030;-73
2023/07/28 11:50:29;;;;;;;18.65;17.55;;;24.30;54.40;;;;;;5107713;28;20028;-73
2023/07/28 11:52:56;;;;;;;21.52;19.63;;;24.00;57.20;;;;;;5111120;28;20051;-73
2023/07/28 11:55:22;;;;;;;19.90;18.80;;;24.20;54.50;;;;;;5109257;28;20535;-74
2023/07/28 11:57:49;;;;;;;19.80;18.30;;;24.40;54.20;;;;;;5110101;28;20023;-73
2023/07/28 12:00:18;;;;;;;17.70;16.70;;;24.90;56.30;;;;;;5106445;28;20028;-73
2023/07/28 12:02:45;;;;;;;18.85;17.58;;;25.30;55.20;;;;;;5106076;28;20040;-75
2023/07/28 12:05:15;;;;;;;17.65;16.48;;;25.30;54.40;;;;;;5107904;28;20103;-74
2023/07/28 12:07:46;;;;;;;19.20;17.98;;;25.20;52.00;;;;;;5084853;28;20032;-73
2023/07/28 12:10:13;;;;;;;21.75;20.75;;;25.20;52.50;;;;;;5089997;28;20031;-73
2023/07/28 12:12:46;;;;;;;19.35;18.15;;;25.20;53.20;;;;;;5106988;28;20172;-74
2023/07/28 12:15:22;;;;;;;21.30;20.30;;;25.10;52.20;;;;;;5107530;27;20035;-73
2023/07/28 12:18:08;;;;;;;16.42;15.63;;;25.00;51.00;;;;;;5105383;28;20043;-74
2023/07/28 12:20:46;;;;;;;16.65;15.73;;;25.10;52.10;;;;;;5107542;27;20705;-73
2023/07/28 12:23:12;;;;;;;20.95;19.95;;;25.00;51.20;;;;;;5103110;28;20031;-74
2023/07/28 12:25:39;;;;;;;19.75;18.35;;;24.80;49.60;;;;;;5109548;28;20028;-74
2023/07/28 12:28:05;;;;;;;20.60;19.27;;;24.80;53.90;;;;;;5087485;27;20024;-73